sensor_id;sensor_type;location;lat;lon;timestamp;pressure;altitude;pressure_sealevel;temperature
19568;BMP280;9930;49.240;8.548;2022-12-10T00:01:34;99410.72;;;6.99
19568;BMP280;9930;49.240;8.548;2022-12-10T00:04:02;99402.91;;;6.93
19568;BMP280;9930;49.240;8.548;2022-12-10T00:06:33;99419.13;;;6.98
19568;BMP280;9930;49.240;8.548;2022-12-10T00:09:04;99412.28;;;6.95
19568;BMP280;9930;49.240;8.548;2022-12-10T00:11:30;99405.50;;;6.94
19568;BMP280;9930;49.240;8.548;2022-12-10T00:13:59;99402.84;;;6.91
19568;BMP280;9930;49.240;8.548;2022-12-10T00:16:27;99410.28;;;6.87
19568;BMP280;9930;49.240;8.548;2022-12-10T00:18:55;99406.56;;;6.77
19568;BMP280;9930;49.240;8.548;2022-12-10T00:21:28;99416.97;;;6.85
19568;BMP280;9930;49.240;8.548;2022-12-10T00:23:57;99422.09;;;6.86
19568;BMP280;9930;49.240;8.548;2022-12-10T00:26:31;99411.91;;;6.85
19568;BMP280;9930;49.240;8.548;2022-12-10T00:29:02;99416.91;;;6.83
19568;BMP280;9930;49.240;8.548;2022-12-10T00:31:31;99419.34;;;6.80
19568;BMP280;9930;49.240;8.548;2022-12-10T00:34:01;99409.84;;;6.74
19568;BMP280;9930;49.240;8.548;2022-12-10T00:36:32;99413.41;;;6.79
19568;BMP280;9930;49.240;8.548;2022-12-10T00:38:59;99411.84;;;6.83
19568;BMP280;9930;49.240;8.548;2022-12-10T00:41:27;99413.50;;;6.82
19568;BMP280;9930;49.240;8.548;2022-12-10T00:43:53;99414.22;;;6.78
19568;BMP280;9930;49.240;8.548;2022-12-10T00:46:19;99421.81;;;6.78
19568;BMP280;9930;49.240;8.548;2022-12-10T00:48:46;99429.41;;;6.78
19568;BMP280;9930;49.240;8.548;2022-12-10T00:51:21;99428.59;;;6.79
19568;BMP280;9930;49.240;8.548;2022-12-10T00:53:56;99421.75;;;6.77
19568;BMP280;9930;49.240;8.548;2022-12-10T00:56:33;99418.38;;;6.76
19568;BMP280;9930;49.240;8.548;2022-12-10T00:59:00;99414.81;;;6.71
19568;BMP280;9930;49.240;8.548;2022-12-10T01:04:05;99432.75;;;6.77
19568;BMP280;9930;49.240;8.548;2022-12-10T01:06:39;99431.09;;;6.78
19568;BMP280;9930;49.240;8.548;2022-12-10T01:09:08;99430.28;;;6.79
19568;BMP280;9930;49.240;8.548;2022-12-10T01:11:38;99434.50;;;6.78
19568;BMP280;9930;49.240;8.548;2022-12-10T01:14:08;99429.25;;;6.74
19568;BMP280;9930;49.240;8.548;2022-12-10T01:16:36;99430.13;;;6.74
19568;BMP280;9930;49.240;8.548;2022-12-10T01:19:03;99441.34;;;6.81
19568;BMP280;9930;49.240;8.548;2022-12-10T01:21:29;99432.69;;;6.76
19568;BMP280;9930;49.240;8.548;2022-12-10T01:23:57;99440.38;;;6.77
19568;BMP280;9930;49.240;8.548;2022-12-10T01:26:31;99446.56;;;6.86
19568;BMP280;9930;49.240;8.548;2022-12-10T01:28:57;99441.41;;;6.82
19568;BMP280;9930;49.240;8.548;2022-12-10T01:31:33;99439.50;;;6.77
19568;BMP280;9930;49.240;8.548;2022-12-10T01:34:06;99437.81;;;6.77
19568;BMP280;9930;49.240;8.548;2022-12-10T01:36:38;99443.81;;;6.79
19568;BMP280;9930;49.240;8.548;2022-12-10T01:39:09;99449.75;;;6.80
19568;BMP280;9930;49.240;8.548;2022-12-10T01:41:46;99445.31;;;6.74
19568;BMP280;9930;49.240;8.548;2022-12-10T01:46:47;99457.19;;;6.75
19568;BMP280;9930;49.240;8.548;2022-12-10T01:49:26;99445.91;;;6.67
19568;BMP280;9930;49.240;8.548;2022-12-10T01:51:56;99470.88;;;6.80
19568;BMP280;9930;49.240;8.548;2022-12-10T01:54:33;99481.13;;;6.83
19568;BMP280;9930;49.240;8.548;2022-12-10T01:57:11;99474.41;;;6.84
19568;BMP280;9930;49.240;8.548;2022-12-10T01:59:39;99469.16;;;6.79
19568;BMP280;9930;49.240;8.548;2022-12-10T02:02:19;99460.56;;;6.76
19568;BMP280;9930;49.240;8.548;2022-12-10T02:05:23;99483.59;;;6.82
19568;BMP280;9930;49.240;8.548;2022-12-10T02:08:12;99481.78;;;6.78
19568;BMP280;9930;49.240;8.548;2022-12-10T02:11:20;99477.28;;;6.71
19568;BMP280;9930;49.240;8.548;2022-12-10T02:14:15;99480.56;;;6.68
19568;BMP280;9930;49.240;8.548;2022-12-10T02:17:02;99467.66;;;6.62
19568;BMP280;9930;49.240;8.548;2022-12-10T02:22:51;99466.72;;;6.60
19568;BMP280;9930;49.240;8.548;2022-12-10T02:25:43;99474.50;;;6.65
19568;BMP280;9930;49.240;8.548;2022-12-10T02:28:38;99476.97;;;6.63
19568;BMP280;9930;49.240;8.548;2022-12-10T02:31:08;99465.88;;;6.60
19568;BMP280;9930;49.240;8.548;2022-12-10T02:33:40;99450.38;;;6.52
19568;BMP280;9930;49.240;8.548;2022-12-10T02:36:10;99455.63;;;6.57
19568;BMP280;9930;49.240;8.548;2022-12-10T02:38:41;99460.13;;;6.64
19568;BMP280;9930;49.240;8.548;2022-12-10T02:41:29;99470.31;;;6.65
19568;BMP280;9930;49.240;8.548;2022-12-10T02:43:59;99465.28;;;6.67
19568;BMP280;9930;49.240;8.548;2022-12-10T02:46:29;99452.50;;;6.64
19568;BMP280;9930;49.240;8.548;2022-12-10T02:48:57;99442.31;;;6.62
19568;BMP280;9930;49.240;8.548;2022-12-10T02:51:26;99455.22;;;6.68
19568;BMP280;9930;49.240;8.548;2022-12-10T02:54:04;99448.25;;;6.63
19568;BMP280;9930;49.240;8.548;2022-12-10T02:56:44;99455.03;;;6.64
19568;BMP280;9930;49.240;8.548;2022-12-10T02:59:29;99453.25;;;6.61
19568;BMP280;9930;49.240;8.548;2022-12-10T03:02:16;99452.47;;;6.62
19568;BMP280;9930;49.240;8.548;2022-12-10T03:05:12;99452.41;;;6.61
19568;BMP280;9930;49.240;8.548;2022-12-10T03:11:17;99448.78;;;6.54
19568;BMP280;9930;49.240;8.548;2022-12-10T03:16:18;99447.97;;;6.55
19568;BMP280;9930;49.240;8.548;2022-12-10T03:18:55;99443.69;;;6.54
19568;BMP280;9930;49.240;8.548;2022-12-10T03:21:26;99441.97;;;6.53
19568;BMP280;9930;49.240;8.548;2022-12-10T03:23:57;99428.22;;;6.46
19568;BMP280;9930;49.240;8.548;2022-12-10T03:26:26;99438.59;;;6.53
19568;BMP280;9930;49.240;8.548;2022-12-10T03:29:05;99440.06;;;6.47
19568;BMP280;9930;49.240;8.548;2022-12-10T03:31:37;99446.97;;;6.52
19568;BMP280;9930;49.240;8.548;2022-12-10T03:34:05;99439.97;;;6.44
19568;BMP280;9930;49.240;8.548;2022-12-10T03:36:34;99450.25;;;6.49
19568;BMP280;9930;49.240;8.548;2022-12-10T03:39:01;99433.00;;;6.39
19568;BMP280;9930;49.240;8.548;2022-12-10T03:41:29;99450.16;;;6.46
19568;BMP280;9930;49.240;8.548;2022-12-10T03:43:59;99457.75;;;6.46
19568;BMP280;9930;49.240;8.548;2022-12-10T03:46:31;99439.78;;;6.40
19568;BMP280;9930;49.240;8.548;2022-12-10T03:49:02;99456.06;;;6.46
19568;BMP280;9930;49.240;8.548;2022-12-10T03:51:31;99450.94;;;6.45
19568;BMP280;9930;49.240;8.548;2022-12-10T03:53:56;99447.25;;;6.37
19568;BMP280;9930;49.240;8.548;2022-12-10T03:56:26;99444.78;;;6.38
19568;BMP280;9930;49.240;8.548;2022-12-10T03:58:58;99448.34;;;6.43
19568;BMP280;9930;49.240;8.548;2022-12-10T04:01:28;99455.91;;;6.42
19568;BMP280;9930;49.240;8.548;2022-12-10T04:03:56;99448.00;;;6.34
19568;BMP280;9930;49.240;8.548;2022-12-10T04:06:26;99468.56;;;6.42
19568;BMP280;9930;49.240;8.548;2022-12-10T04:08:57;99468.50;;;6.40
19568;BMP280;9930;49.240;8.548;2022-12-10T04:11:26;99471.91;;;6.41
19568;BMP280;9930;49.240;8.548;2022-12-10T04:13:56;99470.97;;;6.39
19568;BMP280;9930;49.240;8.548;2022-12-10T04:16:41;99462.44;;;6.37
19568;BMP280;9930;49.240;8.548;2022-12-10T04:19:13;99467.75;;;6.43
19568;BMP280;9930;49.240;8.548;2022-12-10T04:21:43;99478.81;;;6.45
19568;BMP280;9930;49.240;8.548;2022-12-10T04:24:31;99477.09;;;6.44
19568;BMP280;9930;49.240;8.548;2022-12-10T04:27:31;99469.06;;;6.33
19568;BMP280;9930;49.240;8.548;2022-12-10T04:29:59;99477.59;;;6.35
19568;BMP280;9930;49.240;8.548;2022-12-10T04:32:31;99475.06;;;6.35
19568;BMP280;9930;49.240;8.548;2022-12-10T04:34:57;99475.81;;;6.33
19568;BMP280;9930;49.240;8.548;2022-12-10T04:37:27;99489.50;;;6.38
19568;BMP280;9930;49.240;8.548;2022-12-10T04:39:59;99486.97;;;6.38
19568;BMP280;9930;49.240;8.548;2022-12-10T04:42:28;99496.28;;;6.39
19568;BMP280;9930;49.240;8.548;2022-12-10T04:44:57;99491.22;;;6.39
19568;BMP280;9930;49.240;8.548;2022-12-10T04:47:26;99497.16;;;6.39
19568;BMP280;9930;49.240;8.548;2022-12-10T04:49:56;99490.19;;;6.34
19568;BMP280;9930;49.240;8.548;2022-12-10T04:52:26;99502.91;;;6.35
19568;BMP280;9930;49.240;8.548;2022-12-10T04:54:53;99488.41;;;6.31
19568;BMP280;9930;49.240;8.548;2022-12-10T04:57:24;99508.16;;;6.40
19568;BMP280;9930;49.240;8.548;2022-12-10T04:59:57;99482.41;;;6.29
19568;BMP280;9930;49.240;8.548;2022-12-10T05:02:27;99485.00;;;6.31
19568;BMP280;9930;49.240;8.548;2022-12-10T05:04:59;99498.53;;;6.31
19568;BMP280;9930;49.240;8.548;2022-12-10T05:07:29;99499.34;;;6.30
19568;BMP280;9930;49.240;8.548;2022-12-10T05:09:57;99502.66;;;6.29
19568;BMP280;9930;49.240;8.548;2022-12-10T05:12:27;99501.75;;;6.27
19568;BMP280;9930;49.240;8.548;2022-12-10T05:14:56;99493.84;;;6.20
19568;BMP280;9930;49.240;8.548;2022-12-10T05:17:29;99511.81;;;6.26
19568;BMP280;9930;49.240;8.548;2022-12-10T05:19:56;99501.31;;;6.16
19568;BMP280;9930;49.240;8.548;2022-12-10T05:22:26;99507.31;;;6.18
19568;BMP280;9930;49.240;8.548;2022-12-10T05:25:13;99515.06;;;6.23
19568;BMP280;9930;49.240;8.548;2022-12-10T05:27:38;99518.41;;;6.22
19568;BMP280;9930;49.240;8.548;2022-12-10T05:30:05;99519.28;;;6.23
19568;BMP280;9930;49.240;8.548;2022-12-10T05:32:35;99519.34;;;6.24
19568;BMP280;9930;49.240;8.548;2022-12-10T05:35:01;99517.69;;;6.25
19568;BMP280;9930;49.240;8.548;2022-12-10T05:37:27;99510.75;;;6.21
19568;BMP280;9930;49.240;8.548;2022-12-10T05:39:56;99509.97;;;6.22
19568;BMP280;9930;49.240;8.548;2022-12-10T05:42:26;99522.00;;;6.27
19568;BMP280;9930;49.240;8.548;2022-12-10T05:44:56;99520.31;;;6.28
19568;BMP280;9930;49.240;8.548;2022-12-10T05:47:26;99518.47;;;6.24
19568;BMP280;9930;49.240;8.548;2022-12-10T05:49:56;99519.47;;;6.27
19568;BMP280;9930;49.240;8.548;2022-12-10T05:52:26;99523.66;;;6.27
19568;BMP280;9930;49.240;8.548;2022-12-10T05:54:57;99526.13;;;6.25
19568;BMP280;9930;49.240;8.548;2022-12-10T05:57:27;99515.63;;;6.16
19568;BMP280;9930;49.240;8.548;2022-12-10T05:59:56;99526.88;;;6.23
19568;BMP280;9930;49.240;8.548;2022-12-10T06:02:26;99538.53;;;6.19
19568;BMP280;9930;49.240;8.548;2022-12-10T06:04:56;99530.88;;;6.17
19568;BMP280;9930;49.240;8.548;2022-12-10T06:07:26;99535.88;;;6.16
19568;BMP280;9930;49.240;8.548;2022-12-10T06:09:56;99531.25;;;6.06
19568;BMP280;9930;49.240;8.548;2022-12-10T06:12:25;99544.22;;;6.13
19568;BMP280;9930;49.240;8.548;2022-12-10T06:14:56;99532.00;;;6.03
19568;BMP280;9930;49.240;8.548;2022-12-10T06:17:26;99549.16;;;6.10
19568;BMP280;9930;49.240;8.548;2022-12-10T06:19:54;99549.91;;;6.08
19568;BMP280;9930;49.240;8.548;2022-12-10T06:22:25;99562.56;;;6.08
19568;BMP280;9930;49.240;8.548;2022-12-10T06:24:56;99558.97;;;6.03
19568;BMP280;9930;49.240;8.548;2022-12-10T06:27:26;99560.63;;;6.02
19568;BMP280;9930;49.240;8.548;2022-12-10T06:29:59;99561.38;;;6.00
19568;BMP280;9930;49.240;8.548;2022-12-10T06:32:27;99553.53;;;5.94
19568;BMP280;9930;49.240;8.548;2022-12-10T06:34:57;99550.13;;;5.93
19568;BMP280;9930;49.240;8.548;2022-12-10T06:37:27;99568.16;;;6.01
19568;BMP280;9930;49.240;8.548;2022-12-10T06:40:00;99576.56;;;6.00
19568;BMP280;9930;49.240;8.548;2022-12-10T06:42:27;99560.97;;;5.91
19568;BMP280;9930;49.240;8.548;2022-12-10T06:44:57;99564.50;;;5.94
19568;BMP280;9930;49.240;8.548;2022-12-10T06:47:26;99574.63;;;5.94
19568;BMP280;9930;49.240;8.548;2022-12-10T06:49:59;99580.56;;;5.95
19568;BMP280;9930;49.240;8.548;2022-12-10T06:52:26;99565.97;;;5.89
19568;BMP280;9930;49.240;8.548;2022-12-10T06:54:56;99559.25;;;5.90
19568;BMP280;9930;49.240;8.548;2022-12-10T06:57:26;99582.22;;;5.94
19568;BMP280;9930;49.240;8.548;2022-12-10T06:59:55;99584.75;;;5.94
19568;BMP280;9930;49.240;8.548;2022-12-10T07:02:26;99572.59;;;5.87
19568;BMP280;9930;49.240;8.548;2022-12-10T07:04:55;99578.69;;;5.91
19568;BMP280;9930;49.240;8.548;2022-12-10T07:07:26;99579.56;;;5.91
19568;BMP280;9930;49.240;8.548;2022-12-10T07:09:57;99577.53;;;5.84
19568;BMP280;9930;49.240;8.548;2022-12-10T07:12:26;99572.47;;;5.84
19568;BMP280;9930;49.240;8.548;2022-12-10T07:14:58;99592.28;;;5.93
19568;BMP280;9930;49.240;8.548;2022-12-10T07:17:27;99599.00;;;5.92
19568;BMP280;9930;49.240;8.548;2022-12-10T07:19:56;99586.84;;;5.85
19568;BMP280;9930;49.240;8.548;2022-12-10T07:22:29;99603.19;;;5.92
19568;BMP280;9930;49.240;8.548;2022-12-10T07:24:57;99604.00;;;5.91
19568;BMP280;9930;49.240;8.548;2022-12-10T07:27:26;99595.25;;;5.84
19568;BMP280;9930;49.240;8.548;2022-12-10T07:29:57;99591.91;;;5.85
19568;BMP280;9930;49.240;8.548;2022-12-10T07:32:27;99605.66;;;5.90
19568;BMP280;9930;49.240;8.548;2022-12-10T07:34:58;99601.16;;;5.84
19568;BMP280;9930;49.240;8.548;2022-12-10T07:37:28;99600.03;;;5.78
19568;BMP280;9930;49.240;8.548;2022-12-10T07:39:58;99621.41;;;5.84
19568;BMP280;9930;49.240;8.548;2022-12-10T07:42:26;99606.81;;;5.79
19568;BMP280;9930;49.240;8.548;2022-12-10T07:44:56;99622.94;;;5.81
19568;BMP280;9930;49.240;8.548;2022-12-10T07:47:27;99632.41;;;5.85
19568;BMP280;9930;49.240;8.548;2022-12-10T07:49:58;99634.13;;;5.86
19568;BMP280;9930;49.240;8.548;2022-12-10T07:52:27;99636.72;;;5.88
19568;BMP280;9930;49.240;8.548;2022-12-10T07:54:57;99613.41;;;5.75
19568;BMP280;9930;49.240;8.548;2022-12-10T07:57:28;99637.53;;;5.86
19568;BMP280;9930;49.240;8.548;2022-12-10T07:59:59;99633.41;;;5.89
19568;BMP280;9930;49.240;8.548;2022-12-10T08:02:26;99631.75;;;5.89
19568;BMP280;9930;49.240;8.548;2022-12-10T08:04:59;99639.56;;;5.94
19568;BMP280;9930;49.240;8.548;2022-12-10T08:07:29;99641.34;;;5.96
19568;BMP280;9930;49.240;8.548;2022-12-10T08:09:57;99627.63;;;5.91
19568;BMP280;9930;49.240;8.548;2022-12-10T08:12:26;99638.81;;;5.96
19568;BMP280;9930;49.240;8.548;2022-12-10T08:14:57;99643.94;;;5.98
19568;BMP280;9930;49.240;8.548;2022-12-10T08:17:26;99644.94;;;6.01
19568;BMP280;9930;49.240;8.548;2022-12-10T08:19:57;99626.91;;;5.94
19568;BMP280;9930;49.240;8.548;2022-12-10T08:22:26;99640.41;;;5.94
19568;BMP280;9930;49.240;8.548;2022-12-10T08:24:59;99649.88;;;5.98
19568;BMP280;9930;49.240;8.548;2022-12-10T08:27:27;99636.09;;;5.92
19568;BMP280;9930;49.240;8.548;2022-12-10T08:29:56;99650.00;;;6.01
19568;BMP280;9930;49.240;8.548;2022-12-10T08:32:26;99644.94;;;6.01
19568;BMP280;9930;49.240;8.548;2022-12-10T08:34:58;99642.88;;;5.93
19568;BMP280;9930;49.240;8.548;2022-12-10T08:37:26;99642.81;;;5.91
19568;BMP280;9930;49.240;8.548;2022-12-10T08:39:59;99640.78;;;5.84
19568;BMP280;9930;49.240;8.548;2022-12-10T08:42:27;99649.31;;;5.86
19568;BMP280;9930;49.240;8.548;2022-12-10T08:44:56;99653.56;;;5.87
19568;BMP280;9930;49.240;8.548;2022-12-10T08:47:21;99655.25;;;5.86
19568;BMP280;9930;49.240;8.548;2022-12-10T08:49:47;99650.78;;;5.81
19568;BMP280;9930;49.240;8.548;2022-12-10T08:52:13;99661.34;;;5.90
19568;BMP280;9930;49.240;8.548;2022-12-10T08:54:38;99665.44;;;5.88
19568;BMP280;9930;49.240;8.548;2022-12-10T08:57:04;99661.34;;;5.90
19568;BMP280;9930;49.240;8.548;2022-12-10T08:59:30;99666.41;;;5.90
19568;BMP280;9930;49.240;8.548;2022-12-10T09:01:56;99668.06;;;5.90
19568;BMP280;9930;49.240;8.548;2022-12-10T09:04:26;99663.63;;;5.85
19568;BMP280;9930;49.240;8.548;2022-12-10T09:06:57;99679.13;;;5.92
19568;BMP280;9930;49.240;8.548;2022-12-10T09:09:26;99670.22;;;5.82
19568;BMP280;9930;49.240;8.548;2022-12-10T09:11:51;99679.69;;;5.86
19568;BMP280;9930;49.240;8.548;2022-12-10T09:14:17;99663.28;;;5.78
19568;BMP280;9930;49.240;8.548;2022-12-10T09:16:43;99675.47;;;5.86
19568;BMP280;9930;49.240;8.548;2022-12-10T09:19:09;99673.75;;;5.85
19568;BMP280;9930;49.240;8.548;2022-12-10T09:21:38;99683.25;;;5.90
19568;BMP280;9930;49.240;8.548;2022-12-10T09:24:09;99667.75;;;5.83
19568;BMP280;9930;49.240;8.548;2022-12-10T09:26:37;99676.16;;;5.82
19568;BMP280;9930;49.240;8.548;2022-12-10T09:29:03;99676.94;;;5.81
19568;BMP280;9930;49.240;8.548;2022-12-10T09:31:29;99698.31;;;5.88
19568;BMP280;9930;49.240;8.548;2022-12-10T09:33:59;99698.31;;;5.88
19568;BMP280;9930;49.240;8.548;2022-12-10T09:36:27;99694.84;;;5.86
19568;BMP280;9930;49.240;8.548;2022-12-10T09:38:56;99694.78;;;5.84
19568;BMP280;9930;49.240;8.548;2022-12-10T09:46:58;99686.06;;;5.78
19568;BMP280;9930;49.240;8.548;2022-12-10T09:52:35;99697.38;;;5.86
19568;BMP280;9930;49.240;8.548;2022-12-10T09:55:12;99680.34;;;5.82
19568;BMP280;9930;49.240;8.548;2022-12-10T09:57:46;99682.94;;;5.83
19568;BMP280;9930;49.240;8.548;2022-12-10T10:00:30;99700.09;;;5.89
19568;BMP280;9930;49.240;8.548;2022-12-10T10:03:02;99696.59;;;5.87
19568;BMP280;9930;49.240;8.548;2022-12-10T10:05:34;99703.56;;;5.91
19568;BMP280;9930;49.240;8.548;2022-12-10T10:08:04;99689.06;;;5.89
19568;BMP280;9930;49.240;8.548;2022-12-10T10:10:37;99694.06;;;5.87
19568;BMP280;9930;49.240;8.548;2022-12-10T10:15:36;99713.94;;;5.97
19568;BMP280;9930;49.240;8.548;2022-12-10T10:18:15;99704.91;;;6.02
19568;BMP280;9930;49.240;8.548;2022-12-10T10:20:42;99715.16;;;6.05
19568;BMP280;9930;49.240;8.548;2022-12-10T10:23:15;99709.63;;;6.14
19568;BMP280;9930;49.240;8.548;2022-12-10T10:25:44;99711.69;;;6.23
19568;BMP280;9930;49.240;8.548;2022-12-10T10:28:21;99705.91;;;6.25
19568;BMP280;9930;49.240;8.548;2022-12-10T10:30:50;99705.16;;;6.28
19568;BMP280;9930;49.240;8.548;2022-12-10T10:33:17;99702.69;;;6.29
19568;BMP280;9930;49.240;8.548;2022-12-10T10:35:52;99700.38;;;6.34
19568;BMP280;9930;49.240;8.548;2022-12-10T10:38:29;99706.00;;;6.47
19568;BMP280;9930;49.240;8.548;2022-12-10T10:41:02;99710.66;;;6.58
19568;BMP280;9930;49.240;8.548;2022-12-10T10:43:40;99703.06;;;6.58
19568;BMP280;9930;49.240;8.548;2022-12-10T10:46:16;99715.25;;;6.66
19568;BMP280;9930;49.240;8.548;2022-12-10T10:48:43;99719.66;;;6.70
19568;BMP280;9930;49.240;8.548;2022-12-10T10:53:49;99703.03;;;6.77
19568;BMP280;9930;49.240;8.548;2022-12-10T10:59:07;99697.22;;;6.79
19568;BMP280;9930;49.240;8.548;2022-12-10T11:01:51;99703.41;;;6.86
19568;BMP280;9930;49.240;8.548;2022-12-10T11:07:16;99706.88;;;6.88
19568;BMP280;9930;49.240;8.548;2022-12-10T11:09:44;99713.84;;;6.94
19568;BMP280;9930;49.240;8.548;2022-12-10T11:12:40;99713.84;;;6.94
19568;BMP280;9930;49.240;8.548;2022-12-10T11:15:34;99717.13;;;6.91
19568;BMP280;9930;49.240;8.548;2022-12-10T11:18:03;99726.41;;;6.91
19568;BMP280;9930;49.240;8.548;2022-12-10T11:23:40;99711.25;;;6.92
19568;BMP280;9930;49.240;8.548;2022-12-10T11:33:00;99728.81;;;6.88
19568;BMP280;9930;49.240;8.548;2022-12-10T11:41:34;99708.03;;;6.96
19568;BMP280;9930;49.240;8.548;2022-12-10T11:44:14;99713.25;;;6.99
19568;BMP280;9930;49.240;8.548;2022-12-10T11:50:11;99712.31;;;6.97
19568;BMP280;9930;49.240;8.548;2022-12-10T11:53:24;99715.66;;;6.96
19568;BMP280;9930;49.240;8.548;2022-12-10T11:59:14;99729.94;;;6.94
19568;BMP280;9930;49.240;8.548;2022-12-10T12:05:31;99732.41;;;6.93
19568;BMP280;9930;49.240;8.548;2022-12-10T12:09:30;99729.06;;;6.94
19568;BMP280;9930;49.240;8.548;2022-12-10T12:14:32;99740.25;;;6.99
19568;BMP280;9930;49.240;8.548;2022-12-10T12:17:42;99737.78;;;7.00
19568;BMP280;9930;49.240;8.548;2022-12-10T12:20:22;99732.72;;;7.00
19568;BMP280;9930;49.240;8.548;2022-12-10T12:23:16;99727.41;;;6.94
19568;BMP280;9930;49.240;8.548;2022-12-10T12:25:52;99734.50;;;7.03
19568;BMP280;9930;49.240;8.548;2022-12-10T12:28:40;99725.72;;;6.95
19568;BMP280;9930;49.240;8.548;2022-12-10T12:31:14;99725.84;;;6.98
19568;BMP280;9930;49.240;8.548;2022-12-10T12:33:53;99728.44;;;6.99
19568;BMP280;9930;49.240;8.548;2022-12-10T12:36:33;99728.50;;;7.01
19568;BMP280;9930;49.240;8.548;2022-12-10T12:42:12;99728.63;;;7.04
19568;BMP280;9930;49.240;8.548;2022-12-10T12:50:46;99725.91;;;6.99
19568;BMP280;9930;49.240;8.548;2022-12-10T12:53:18;99724.88;;;6.94
19568;BMP280;9930;49.240;8.548;2022-12-10T12:59:02;99730.72;;;6.93
19568;BMP280;9930;49.240;8.548;2022-12-10T13:04:04;99757.13;;;6.98
19568;BMP280;9930;49.240;8.548;2022-12-10T13:06:37;99753.72;;;6.98
19568;BMP280;9930;49.240;8.548;2022-12-10T13:12:16;99752.94;;;6.99
19568;BMP280;9930;49.240;8.548;2022-12-10T13:17:37;99749.91;;;6.87
19568;BMP280;9930;49.240;8.548;2022-12-10T13:23:08;99756.75;;;6.89
19568;BMP280;9930;49.240;8.548;2022-12-10T13:26:00;99761.16;;;6.93
19568;BMP280;9930;49.240;8.548;2022-12-10T13:28:29;99762.16;;;6.97
19568;BMP280;9930;49.240;8.548;2022-12-10T13:34:05;99780.34;;;7.07
19568;BMP280;9930;49.240;8.548;2022-12-10T13:45:26;99774.78;;;7.16
19568;BMP280;9930;49.240;8.548;2022-12-10T13:48:22;99785.34;;;7.27
19568;BMP280;9930;49.240;8.548;2022-12-10T13:54:05;99784.53;;;7.28
19568;BMP280;9930;49.240;8.548;2022-12-10T14:02:42;99821.53;;;7.43
19568;BMP280;9930;49.240;8.548;2022-12-10T14:05:31;99825.75;;;7.43
19568;BMP280;9930;49.240;8.548;2022-12-10T14:08:02;99831.63;;;7.42
19568;BMP280;9930;49.240;8.548;2022-12-10T14:10:35;99832.44;;;7.41
19568;BMP280;9930;49.240;8.548;2022-12-10T14:13:04;99830.69;;;7.40
19568;BMP280;9930;49.240;8.548;2022-12-10T14:15:34;99834.03;;;7.39
19568;BMP280;9930;49.240;8.548;2022-12-10T14:18:09;99833.91;;;7.36
19568;BMP280;9930;49.240;8.548;2022-12-10T14:20:44;99838.06;;;7.34
19568;BMP280;9930;49.240;8.548;2022-12-10T14:23:30;99841.47;;;7.34
19568;BMP280;9930;49.240;8.548;2022-12-10T14:26:28;99834.53;;;7.30
19568;BMP280;9930;49.240;8.548;2022-12-10T14:29:00;99846.53;;;7.34
19568;BMP280;9930;49.240;8.548;2022-12-10T14:31:37;99842.31;;;7.35
19568;BMP280;9930;49.240;8.548;2022-12-10T14:34:11;99841.22;;;7.28
19568;BMP280;9930;49.240;8.548;2022-12-10T14:36:46;99847.09;;;7.27
19568;BMP280;9930;49.240;8.548;2022-12-10T14:39:20;99855.38;;;7.23
19568;BMP280;9930;49.240;8.548;2022-12-10T14:41:51;99848.63;;;7.24
19568;BMP280;9930;49.240;8.548;2022-12-10T14:44:18;99839.84;;;7.15
19568;BMP280;9930;49.240;8.548;2022-12-10T14:46:49;99847.50;;;7.17
19568;BMP280;9930;49.240;8.548;2022-12-10T14:49:29;99865.44;;;7.22
19568;BMP280;9930;49.240;8.548;2022-12-10T14:51:57;99864.47;;;7.18
19568;BMP280;9930;49.240;8.548;2022-12-10T14:54:34;99855.78;;;7.13
19568;BMP280;9930;49.240;8.548;2022-12-10T14:57:05;99866.88;;;7.15
19568;BMP280;9930;49.240;8.548;2022-12-10T14:59:47;99867.84;;;7.19
19568;BMP280;9930;49.240;8.548;2022-12-10T15:02:33;99861.53;;;7.09
19568;BMP280;9930;49.240;8.548;2022-12-10T15:05:00;99879.53;;;7.15
19568;BMP280;9930;49.240;8.548;2022-12-10T15:07:33;99887.16;;;7.15
19568;BMP280;9930;49.240;8.548;2022-12-10T15:10:10;99872.53;;;7.09
19568;BMP280;9930;49.240;8.548;2022-12-10T15:12:45;99874.94;;;7.06
19568;BMP280;9930;49.240;8.548;2022-12-10T15:15:39;99883.63;;;7.11
19568;BMP280;9930;49.240;8.548;2022-12-10T15:18:18;99889.41;;;7.09
19568;BMP280;9930;49.240;8.548;2022-12-10T15:20:53;99882.34;;;7.02
19568;BMP280;9930;49.240;8.548;2022-12-10T15:28:43;99877.03;;;6.96
19568;BMP280;9930;49.240;8.548;2022-12-10T15:31:28;99891.44;;;6.97
19568;BMP280;9930;49.240;8.548;2022-12-10T15:34:07;99893.97;;;6.97
19568;BMP280;9930;49.240;8.548;2022-12-10T15:36:39;99885.97;;;6.88
19568;BMP280;9930;49.240;8.548;2022-12-10T15:41:59;99893.75;;;6.92
19568;BMP280;9930;49.240;8.548;2022-12-10T15:47:26;99912.31;;;6.91
19568;BMP280;9930;49.240;8.548;2022-12-10T15:49:57;99897.69;;;6.86
19568;BMP280;9930;49.240;8.548;2022-12-10T15:52:29;99889.22;;;6.85
19568;BMP280;9930;49.240;8.548;2022-12-10T15:54:58;99903.78;;;6.89
19568;BMP280;9930;49.240;8.548;2022-12-10T15:57:35;99913.31;;;6.95
19568;BMP280;9930;49.240;8.548;2022-12-10T16:00:18;99909.63;;;6.88
19568;BMP280;9930;49.240;8.548;2022-12-10T16:03:05;99903.44;;;6.81
19568;BMP280;9930;49.240;8.548;2022-12-10T16:05:39;99918.78;;;6.85
19568;BMP280;9930;49.240;8.548;2022-12-10T16:10:49;99904.75;;;6.73
19568;BMP280;9930;49.240;8.548;2022-12-10T16:13:28;99897.75;;;6.68
19568;BMP280;9930;49.240;8.548;2022-12-10T16:16:10;99917.50;;;6.75
19568;BMP280;9930;49.240;8.548;2022-12-10T16:18:39;99930.97;;;6.74
19568;BMP280;9930;49.240;8.548;2022-12-10T16:21:07;99917.00;;;6.64
19568;BMP280;9930;49.240;8.548;2022-12-10T16:23:34;99927.34;;;6.69
19568;BMP280;9930;49.240;8.548;2022-12-10T16:26:00;99917.69;;;6.60
19568;BMP280;9930;49.240;8.548;2022-12-10T16:28:27;99932.00;;;6.60
19568;BMP280;9930;49.240;8.548;2022-12-10T16:30:58;99940.47;;;6.60
19568;BMP280;9930;49.240;8.548;2022-12-10T16:33:29;99938.59;;;6.56
19568;BMP280;9930;49.240;8.548;2022-12-10T16:35:57;99940.06;;;6.51
19568;BMP280;9930;49.240;8.548;2022-12-10T16:38:27;99938.25;;;6.48
19568;BMP280;9930;49.240;8.548;2022-12-10T16:40:55;99925.03;;;6.36
19568;BMP280;9930;49.240;8.548;2022-12-10T16:43:29;99928.28;;;6.34
19568;BMP280;9930;49.240;8.548;2022-12-10T16:45:58;99933.84;;;6.27
19568;BMP280;9930;49.240;8.548;2022-12-10T16:48:29;99942.25;;;6.26
19568;BMP280;9930;49.240;8.548;2022-12-10T16:50:58;99941.09;;;6.19
19568;BMP280;9930;49.240;8.548;2022-12-10T16:53:30;99931.25;;;6.07
19568;BMP280;9930;49.240;8.548;2022-12-10T16:56:03;99936.38;;;6.09
19568;BMP280;9930;49.240;8.548;2022-12-10T16:58:30;99937.84;;;6.04
19568;BMP280;9930;49.240;8.548;2022-12-10T17:00:57;99926.41;;;5.94
19568;BMP280;9930;49.240;8.548;2022-12-10T17:03:27;99920.31;;;5.91
19568;BMP280;9930;49.240;8.548;2022-12-10T17:06:00;99926.00;;;5.86
19568;BMP280;9930;49.240;8.548;2022-12-10T17:08:31;99917.88;;;5.76